Ana Sayfa
METAR-TAF:

METAR-TAF

Havaalanları :

Salida, Colorado, Amerika Birleşik Devletleri

Enlem: 38-32-18N, Boylam: 106-02-55W, yükseklik: 2293 m

Güncel hava durumu gözlemi

Rapor saat 00:55 UTC de 27 dakika önce yapıldı.
Rüzgar batıdan 11 kt
Sıcaklık 28°C
Nem 13%
Basınç 1025 hPa
Görüş mesafesi: 16.1 km
Açık gökyüzü

METAR: KANK 250055Z AUTO 27011KT 10SM CLR 28/M03 A3027 RMK AO1 T02771033

Saat: 19:22 (01:22 UTC)


TAF: eksik

4.000'den fazla havaalanı için hava durumu gözlemleri ve tahminleri (METAR ve TAF raporları).

Kullanılabilir istasyonlar harita üzerinde sarı ve kırmızı noktalarla gösterilir.

İstasyonun adını görmek için fareyi noktanın üzerinde gezdirin.

Sonrasında hava gözlem ve tahminlerini görmek için tıklayın.

Haritayı değiştirmek için: yaklaştırmak için siyah artı işaretli yeşil düğmeye ve uzaklaştırmak için de eksi işaretli düğmeye hızla tıklayın; bitişik haritalar için yeşil okları kullanın.


METAR-TAF: